PWSweather.com
Personal Weather Stations
Station Observations
WD4JKH
Forsyth, GA 31029

Forsyth, GA 31029

Lat: 33.033225, Lon: -83.927995

Elevation: 709

Station Type: Davis Vantage VUE

High Low Average
Temperature 89.9°F32.2°C 70.4°F21.3°C 78.1°F25.6°C
Dew Point 73.6°F23.1°C 68.2°F20.1°C 70.9°F21.6°C
Winds 5.1 mph 8.2 kmh Calm Calm 2.0 mph SE3.2 kmh SE
Wind Gusts 11.0 mph17.7 kmh -- 4.0 mph6.4 kmh
Humidity 98% 51% 80%
Pressure 30.02 in1016.6 mb 29.90 in1012.5 mb -
Precipitation 0.03 in0.8 mm - -
Hour Temp Dew Point Humidity Winds Wind Gusts Pressure Precip Precip Rate Daily Precip Total
12:04 AM 71.4°F21.9°C 69.9°F21.1°C 95% 1.0 mph E1.6 kmh E 3.0 mph4.8 kmh 30.01 in1016.3 mb 0.02 in0.5 mm 0.30 in7.6 mm 0.02 in0.5 mm
12:09 AM 71.4°F21.9°C 69.9°F21.1°C 95% 1.0 mph E1.6 kmh E 3.0 mph4.8 kmh 30.01 in1016.3 mb 0.02 in0.5 mm 0.00 in0.0 mm 0.02 in0.5 mm
12:14 AM 71.5°F21.9°C 70.0°F21.1°C 95% 1.0 mph SE1.6 kmh SE 3.0 mph4.8 kmh 30.01 in1016.3 mb 0.02 in0.5 mm 0.00 in0.0 mm 0.02 in0.5 mm
12:20 AM 71.6°F22.0°C 70.1°F21.2°C 95% Calm Calm 2.0 mph3.2 kmh 30.01 in1016.3 mb 0.01 in0.3 mm 0.00 in0.0 mm 0.02 in0.5 mm
12:25 AM 71.7°F22.1°C 70.2°F21.2°C 95% 1.0 mph ESE1.6 kmh ESE 2.0 mph3.2 kmh 30.01 in1016.3 mb 0.01 in0.3 mm 0.00 in0.0 mm 0.02 in0.5 mm
12:30 AM 71.6°F22.0°C 70.1°F21.2°C 95% 1.2 mph E1.9 kmh E 3.0 mph4.8 kmh 30.01 in1016.3 mb 0.01 in0.3 mm 0.00 in0.0 mm 0.02 in0.5 mm
12:35 AM 71.5°F21.9°C 70.0°F21.1°C 95% 1.0 mph ENE1.6 kmh ENE 3.0 mph4.8 kmh 30.01 in1016.3 mb 0.00 in0.0 mm 0.00 in0.0 mm 0.02 in0.5 mm
12:40 AM 71.5°F21.9°C 70.0°F21.1°C 95% 1.4 mph NE2.3 kmh NE 3.0 mph4.8 kmh 30.01 in1016.3 mb 0.01 in0.3 mm 0.12 in3.0 mm 0.03 in0.8 mm
12:46 AM 71.4°F21.9°C 70.2°F21.2°C 96% 1.2 mph NE1.9 kmh NE 2.0 mph3.2 kmh 30.01 in1016.3 mb 0.01 in0.3 mm 0.00 in0.0 mm 0.03 in0.8 mm
12:51 AM 71.4°F21.9°C 70.2°F21.2°C 96% 1.0 mph ESE1.6 kmh ESE 2.0 mph3.2 kmh 30.02 in1016.6 mb 0.01 in0.3 mm 0.00 in0.0 mm 0.03 in0.8 mm
12:56 AM 71.3°F21.8°C 70.1°F21.2°C 96% 1.0 mph E1.6 kmh E 2.0 mph3.2 kmh 30.01 in1016.3 mb 0.01 in0.3 mm 0.00 in0.0 mm 0.03 in0.8 mm
01:01 AM 71.3°F21.8°C 70.1°F21.2°C 96% 1.2 mph ENE1.9 kmh ENE 2.0 mph3.2 kmh 30.01 in1016.3 mb 0.01 in0.3 mm 0.00 in0.0 mm 0.03 in0.8 mm
01:06 AM 71.3°F21.8°C 70.1°F21.2°C 96% 1.0 mph E1.6 kmh E 2.0 mph3.2 kmh 30.01 in1016.3 mb 0.01 in0.3 mm 0.00 in0.0 mm 0.03 in0.8 mm
01:12 AM 71.3°F21.8°C 70.1°F21.2°C 96% 1.3 mph E2.1 kmh E 2.0 mph3.2 kmh 30.01 in1016.3 mb 0.01 in0.3 mm 0.00 in0.0 mm 0.03 in0.8 mm
01:17 AM 71.3°F21.8°C 70.1°F21.2°C 96% 1.3 mph E2.1 kmh E 2.0 mph3.2 kmh 30.01 in1016.3 mb 0.01 in0.3 mm 0.00 in0.0 mm 0.03 in0.8 mm
01:22 AM 71.2°F21.8°C 70.0°F21.1°C 96% 1.0 mph ENE1.6 kmh ENE 2.0 mph3.2 kmh 30.00 in1015.9 mb 0.01 in0.3 mm 0.00 in0.0 mm 0.03 in0.8 mm
01:27 AM 71.2°F21.8°C 70.0°F21.1°C 96% Calm Calm 2.0 mph3.2 kmh 30.00 in1015.9 mb 0.01 in0.3 mm 0.00 in0.0 mm 0.03 in0.8 mm
01:33 AM 71.3°F21.8°C 70.4°F21.3°C 97% 1.0 mph E1.6 kmh E 2.0 mph3.2 kmh 30.00 in1015.9 mb 0.01 in0.3 mm 0.00 in0.0 mm 0.03 in0.8 mm
01:38 AM 71.3°F21.8°C 70.4°F21.3°C 97% 1.0 mph E1.6 kmh E 2.0 mph3.2 kmh 30.00 in1015.9 mb 0.00 in0.0 mm 0.00 in0.0 mm 0.03 in0.8 mm
01:43 AM 71.3°F21.8°C 70.4°F21.3°C 97% 1.0 mph SE1.6 kmh SE 2.0 mph3.2 kmh 30.00 in1015.9 mb 0.00 in0.0 mm 0.00 in0.0 mm 0.03 in0.8 mm
01:48 AM 71.2°F21.8°C 70.3°F21.3°C 97% Calm Calm 1.0 mph1.6 kmh 29.99 in1015.6 mb 0.00 in0.0 mm 0.00 in0.0 mm 0.03 in0.8 mm
01:53 AM 71.2°F21.8°C 70.3°F21.3°C 97% Calm Calm 1.0 mph1.6 kmh 29.99 in1015.6 mb 0.00 in0.0 mm 0.00 in0.0 mm 0.03 in0.8 mm
01:57 AM 71.4°F21.9°C 70.5°F21.4°C 97% Calm Calm 1.0 mph1.6 kmh 29.99 in1015.6 mb 0.00 in0.0 mm 0.00 in0.0 mm 0.03 in0.8 mm
02:03 AM 71.5°F21.9°C 70.6°F21.4°C 97% Calm Calm -- 29.99 in1015.6 mb 0.00 in0.0 mm 0.00 in0.0 mm 0.03 in0.8 mm
02:08 AM 71.6°F22.0°C 70.7°F21.5°C 97% Calm Calm -- 29.99 in1015.6 mb 0.00 in0.0 mm 0.00 in0.0 mm 0.03 in0.8 mm
02:13 AM 71.5°F21.9°C 70.6°F21.4°C 97% Calm Calm -- 29.99 in1015.6 mb 0.00 in0.0 mm 0.00 in0.0 mm 0.03 in0.8 mm
02:18 AM 71.6°F22.0°C 70.7°F21.5°C 97% Calm Calm -- 29.99 in1015.6 mb 0.00 in0.0 mm 0.00 in0.0 mm 0.03 in0.8 mm
02:23 AM 71.6°F22.0°C 70.7°F21.5°C 97% Calm Calm -- 29.99 in1015.6 mb 0.00 in0.0 mm 0.00 in0.0 mm 0.03 in0.8 mm
02:29 AM 71.5°F21.9°C 70.6°F21.4°C 97% 1.0 mph 1.6 kmh 1.0 mph1.6 kmh 29.98 in1015.2 mb 0.00 in0.0 mm 0.00 in0.0 mm 0.03 in0.8 mm
02:34 AM 71.5°F21.9°C 70.6°F21.4°C 97% Calm Calm 1.0 mph1.6 kmh 29.98 in1015.2 mb 0.00 in0.0 mm 0.00 in0.0 mm 0.03 in0.8 mm
02:39 AM 71.4°F21.9°C 70.5°F21.4°C 97% Calm Calm 1.0 mph1.6 kmh 29.98 in1015.2 mb 0.00 in0.0 mm 0.00 in0.0 mm 0.03 in0.8 mm
02:44 AM 71.4°F21.9°C 70.5°F21.4°C 97% 1.0 mph N1.6 kmh N 1.0 mph1.6 kmh 29.98 in1015.2 mb 0.00 in0.0 mm 0.00 in0.0 mm 0.03 in0.8 mm
02:49 AM 71.4°F21.9°C 70.5°F21.4°C 97% Calm Calm 1.0 mph1.6 kmh 29.98 in1015.2 mb 0.00 in0.0 mm 0.00 in0.0 mm 0.03 in0.8 mm
02:55 AM 71.4°F21.9°C 70.5°F21.4°C 97% Calm Calm 1.0 mph1.6 kmh 29.98 in1015.2 mb 0.00 in0.0 mm 0.00 in0.0 mm 0.03 in0.8 mm
03:00 AM 71.4°F21.9°C 70.5°F21.4°C 97% Calm Calm 1.0 mph1.6 kmh 29.97 in1014.9 mb 0.00 in0.0 mm 0.00 in0.0 mm 0.03 in0.8 mm
03:05 AM 71.4°F21.9°C 70.5°F21.4°C 97% Calm Calm -- 29.97 in1014.9 mb 0.00 in0.0 mm 0.00 in0.0 mm 0.03 in0.8 mm
03:10 AM 71.4°F21.9°C 70.5°F21.4°C 97% Calm Calm -- 29.97 in1014.9 mb 0.00 in0.0 mm 0.00 in0.0 mm 0.03 in0.8 mm
03:15 AM 71.4°F21.9°C 70.5°F21.4°C 97% Calm Calm -- 29.97 in1014.9 mb 0.00 in0.0 mm 0.00 in0.0 mm 0.03 in0.8 mm
03:21 AM 71.6°F22.0°C 70.7°F21.5°C 97% Calm Calm -- 29.97 in1014.9 mb 0.00 in0.0 mm 0.00 in0.0 mm 0.03 in0.8 mm
03:26 AM 71.5°F21.9°C 70.6°F21.4°C 97% 1.0 mph NE1.6 kmh NE 1.0 mph1.6 kmh 29.97 in1014.9 mb 0.00 in0.0 mm 0.00 in0.0 mm 0.03 in0.8 mm
03:31 AM 71.4°F21.9°C 70.5°F21.4°C 97% 1.2 mph NE1.9 kmh NE 2.0 mph3.2 kmh 29.97 in1014.9 mb 0.00 in0.0 mm 0.00 in0.0 mm 0.03 in0.8 mm
03:36 AM 71.3°F21.8°C 70.4°F21.3°C 97% 1.0 mph NE1.6 kmh NE 2.0 mph3.2 kmh 29.97 in1014.9 mb 0.00 in0.0 mm 0.00 in0.0 mm 0.03 in0.8 mm
03:41 AM 71.3°F21.8°C 70.4°F21.3°C 97% 1.5 mph NNE2.4 kmh NNE 2.0 mph3.2 kmh 29.97 in1014.9 mb 0.00 in0.0 mm 0.00 in0.0 mm 0.03 in0.8 mm
03:47 AM 71.2°F21.8°C 70.3°F21.3°C 97% 1.0 mph NE1.6 kmh NE 2.0 mph3.2 kmh 29.97 in1014.9 mb 0.00 in0.0 mm 0.00 in0.0 mm 0.03 in0.8 mm
03:52 AM 71.2°F21.8°C 70.3°F21.3°C 97% 1.0 mph NNW1.6 kmh NNW 2.0 mph3.2 kmh 29.97 in1014.9 mb 0.00 in0.0 mm 0.00 in0.0 mm 0.03 in0.8 mm
03:57 AM 71.1°F21.7°C 70.2°F21.2°C 97% 1.0 mph NNW1.6 kmh NNW 2.0 mph3.2 kmh 29.97 in1014.9 mb 0.00 in0.0 mm 0.00 in0.0 mm 0.03 in0.8 mm
04:02 AM 71.1°F21.7°C 70.2°F21.2°C 97% Calm Calm 1.0 mph1.6 kmh 29.97 in1014.9 mb 0.00 in0.0 mm 0.00 in0.0 mm 0.03 in0.8 mm
04:07 AM 71.0°F21.7°C 70.1°F21.2°C 97% Calm Calm 1.0 mph1.6 kmh 29.97 in1014.9 mb 0.00 in0.0 mm 0.00 in0.0 mm 0.03 in0.8 mm
04:13 AM 71.0°F21.7°C 70.1°F21.2°C 97% 1.0 mph N1.6 kmh N 1.0 mph1.6 kmh 29.97 in1014.9 mb 0.00 in0.0 mm 0.00 in0.0 mm 0.03 in0.8 mm
04:18 AM 71.1°F21.7°C 70.2°F21.2°C 97% Calm Calm 1.0 mph1.6 kmh 29.97 in1014.9 mb 0.00 in0.0 mm 0.00 in0.0 mm 0.03 in0.8 mm
04:23 AM 71.0°F21.7°C 70.1°F21.2°C 97% Calm Calm 1.0 mph1.6 kmh 29.97 in1014.9 mb 0.00 in0.0 mm 0.00 in0.0 mm 0.03 in0.8 mm
04:28 AM 71.0°F21.7°C 70.1°F21.2°C 97% 1.0 mph NE1.6 kmh NE 1.0 mph1.6 kmh 29.97 in1014.9 mb 0.00 in0.0 mm 0.00 in0.0 mm 0.03 in0.8 mm
04:33 AM 71.0°F21.7°C 70.1°F21.2°C 97% 1.6 mph NE2.6 kmh NE 2.0 mph3.2 kmh 29.97 in1014.9 mb 0.00 in0.0 mm 0.00 in0.0 mm 0.03 in0.8 mm
04:39 AM 71.0°F21.7°C 70.1°F21.2°C 97% 2.3 mph NE3.7 kmh NE 4.0 mph6.4 kmh 29.97 in1014.9 mb 0.00 in0.0 mm 0.00 in0.0 mm 0.03 in0.8 mm
04:44 AM 70.9°F21.6°C 70.0°F21.1°C 97% 1.4 mph ENE2.3 kmh ENE 4.0 mph6.4 kmh 29.97 in1014.9 mb 0.00 in0.0 mm 0.00 in0.0 mm 0.03 in0.8 mm
04:49 AM 70.9°F21.6°C 70.0°F21.1°C 97% 1.6 mph NE2.6 kmh NE 4.0 mph6.4 kmh 29.97 in1014.9 mb 0.00 in0.0 mm 0.00 in0.0 mm 0.03 in0.8 mm
04:54 AM 70.9°F21.6°C 70.0°F21.1°C 97% 1.4 mph ENE2.3 kmh ENE 4.0 mph6.4 kmh 29.97 in1014.9 mb 0.00 in0.0 mm 0.00 in0.0 mm 0.03 in0.8 mm
04:59 AM 70.8°F21.6°C 69.9°F21.1°C 97% 1.6 mph NE2.6 kmh NE 4.0 mph6.4 kmh 29.96 in1014.6 mb 0.00 in0.0 mm 0.00 in0.0 mm 0.03 in0.8 mm
05:05 AM 70.7°F21.5°C 69.8°F21.0°C 97% 1.5 mph NE2.4 kmh NE 4.0 mph6.4 kmh 29.97 in1014.9 mb 0.00 in0.0 mm 0.00 in0.0 mm 0.03 in0.8 mm
05:10 AM 70.7°F21.5°C 69.8°F21.0°C 97% 1.8 mph NE2.9 kmh NE 5.0 mph8.0 kmh 29.97 in1014.9 mb 0.00 in0.0 mm 0.00 in0.0 mm 0.03 in0.8 mm
05:15 AM 70.7°F21.5°C 69.8°F21.0°C 97% 1.0 mph NE1.6 kmh NE 5.0 mph8.0 kmh 29.97 in1014.9 mb 0.00 in0.0 mm 0.00 in0.0 mm 0.03 in0.8 mm
05:20 AM 70.7°F21.5°C 69.8°F21.0°C 97% 1.0 mph NE1.6 kmh NE 5.0 mph8.0 kmh 29.97 in1014.9 mb 0.00 in0.0 mm 0.00 in0.0 mm 0.03 in0.8 mm
05:25 AM 70.6°F21.4°C 69.7°F20.9°C 97% Calm Calm 4.0 mph6.4 kmh 29.97 in1014.9 mb 0.00 in0.0 mm 0.00 in0.0 mm 0.03 in0.8 mm
05:31 AM 70.5°F21.4°C 69.6°F20.9°C 97% Calm Calm 2.0 mph3.2 kmh 29.97 in1014.9 mb 0.00 in0.0 mm 0.00 in0.0 mm 0.03 in0.8 mm
05:36 AM 70.4°F21.3°C 69.5°F20.8°C 97% 1.4 mph NE2.3 kmh NE 2.0 mph3.2 kmh 29.98 in1015.2 mb 0.00 in0.0 mm 0.00 in0.0 mm 0.03 in0.8 mm
05:41 AM 70.4°F21.3°C 69.5°F20.8°C 97% 1.3 mph NE2.1 kmh NE 2.0 mph3.2 kmh 29.98 in1015.2 mb 0.00 in0.0 mm 0.00 in0.0 mm 0.03 in0.8 mm
05:46 AM 70.4°F21.3°C 69.8°F21.0°C 98% 1.1 mph NE1.8 kmh NE 2.0 mph3.2 kmh 29.98 in1015.2 mb 0.00 in0.0 mm 0.00 in0.0 mm 0.03 in0.8 mm
05:51 AM 70.4°F21.3°C 69.8°F21.0°C 98% Calm Calm 3.0 mph4.8 kmh 29.98 in1015.2 mb 0.00 in0.0 mm 0.00 in0.0 mm 0.03 in0.8 mm
05:57 AM 70.4°F21.3°C 69.8°F21.0°C 98% Calm Calm 3.0 mph4.8 kmh 29.98 in1015.2 mb 0.00 in0.0 mm 0.00 in0.0 mm 0.03 in0.8 mm
06:02 AM 70.4°F21.3°C 69.8°F21.0°C 98% Calm Calm 3.0 mph4.8 kmh 29.98 in1015.2 mb 0.00 in0.0 mm 0.00 in0.0 mm 0.03 in0.8 mm
06:07 AM 70.4°F21.3°C 69.8°F21.0°C 98% Calm Calm -- 29.98 in1015.2 mb 0.00 in0.0 mm 0.00 in0.0 mm 0.03 in0.8 mm
06:12 AM 70.4°F21.3°C 69.8°F21.0°C 98% 2.2 mph ENE3.5 kmh ENE 3.0 mph4.8 kmh 29.98 in1015.2 mb 0.00 in0.0 mm 0.00 in0.0 mm 0.03 in0.8 mm
06:17 AM 70.5°F21.4°C 69.9°F21.1°C 98% 1.3 mph ENE2.1 kmh ENE 3.0 mph4.8 kmh 29.98 in1015.2 mb 0.00 in0.0 mm 0.00 in0.0 mm 0.03 in0.8 mm
06:23 AM 70.5°F21.4°C 69.9°F21.1°C 98% 1.1 mph E1.8 kmh E 3.0 mph4.8 kmh 29.98 in1015.2 mb 0.00 in0.0 mm 0.00 in0.0 mm 0.03 in0.8 mm
06:28 AM 70.6°F21.4°C 70.0°F21.1°C 98% 1.1 mph ENE1.8 kmh ENE 3.0 mph4.8 kmh 29.99 in1015.6 mb 0.00 in0.0 mm 0.00 in0.0 mm 0.03 in0.8 mm
06:34 AM 71.0°F21.7°C 70.4°F21.3°C 98% 3.0 mph NE4.8 kmh NE 4.0 mph6.4 kmh 29.99 in1015.6 mb 0.00 in0.0 mm 0.00 in0.0 mm 0.03 in0.8 mm
06:39 AM 70.9°F21.6°C 70.3°F21.3°C 98% 1.3 mph ENE2.1 kmh ENE 4.0 mph6.4 kmh 29.99 in1015.6 mb 0.00 in0.0 mm 0.00 in0.0 mm 0.03 in0.8 mm
06:44 AM 70.9°F21.6°C 70.3°F21.3°C 98% 1.6 mph NE2.6 kmh NE 4.0 mph6.4 kmh 30.00 in1015.9 mb 0.00 in0.0 mm 0.00 in0.0 mm 0.03 in0.8 mm
06:49 AM 70.9°F21.6°C 70.3°F21.3°C 98% 1.3 mph NE2.1 kmh NE 4.0 mph6.4 kmh 30.00 in1015.9 mb 0.00 in0.0 mm 0.00 in0.0 mm 0.03 in0.8 mm
06:54 AM 71.0°F21.7°C 70.4°F21.3°C 98% Calm Calm 4.0 mph6.4 kmh 30.00 in1015.9 mb 0.00 in0.0 mm 0.00 in0.0 mm 0.03 in0.8 mm
06:59 AM 70.9°F21.6°C 70.3°F21.3°C 98% 1.0 mph N1.6 kmh N 3.0 mph4.8 kmh 30.00 in1015.9 mb 0.00 in0.0 mm 0.00 in0.0 mm 0.03 in0.8 mm
07:04 AM 70.8°F21.6°C 70.2°F21.2°C 98% 1.6 mph NE2.6 kmh NE 3.0 mph4.8 kmh 30.00 in1015.9 mb 0.00 in0.0 mm 0.00 in0.0 mm 0.03 in0.8 mm
07:09 AM 70.7°F21.5°C 69.8°F21.0°C 97% 1.7 mph NE2.7 kmh NE 5.0 mph8.0 kmh 30.00 in1015.9 mb 0.00 in0.0 mm 0.00 in0.0 mm 0.03 in0.8 mm
07:14 AM 70.7°F21.5°C 70.1°F21.2°C 98% 4.2 mph NE6.8 kmh NE 7.0 mph11.3 kmh 30.00 in1015.9 mb 0.00 in0.0 mm 0.00 in0.0 mm 0.03 in0.8 mm
07:19 AM 70.8°F21.6°C 70.2°F21.2°C 98% 1.0 mph NE1.6 kmh NE 7.0 mph11.3 kmh 30.00 in1015.9 mb 0.00 in0.0 mm 0.00 in0.0 mm 0.03 in0.8 mm
07:24 AM 70.9°F21.6°C 70.3°F21.3°C 98% 2.3 mph NE3.7 kmh NE 7.0 mph11.3 kmh 30.00 in1015.9 mb 0.00 in0.0 mm 0.00 in0.0 mm 0.03 in0.8 mm
07:29 AM 70.9°F21.6°C 70.3°F21.3°C 98% 1.6 mph NE2.6 kmh NE 7.0 mph11.3 kmh 30.00 in1015.9 mb 0.00 in0.0 mm 0.00 in0.0 mm 0.03 in0.8 mm
07:34 AM 70.9°F21.6°C 70.3°F21.3°C 98% Calm Calm 5.0 mph8.0 kmh 30.01 in1016.3 mb 0.00 in0.0 mm 0.00 in0.0 mm 0.03 in0.8 mm
07:39 AM 71.1°F21.7°C 70.5°F21.4°C 98% Calm Calm 5.0 mph8.0 kmh 30.01 in1016.3 mb 0.00 in0.0 mm 0.00 in0.0 mm 0.03 in0.8 mm
07:44 AM 71.3°F21.8°C 70.7°F21.5°C 98% 1.0 mph NNE1.6 kmh NNE 5.0 mph8.0 kmh 30.01 in1016.3 mb 0.00 in0.0 mm 0.00 in0.0 mm 0.03 in0.8 mm
07:49 AM 71.4°F21.9°C 70.8°F21.6°C 98% 1.0 mph ENE1.6 kmh ENE 4.0 mph6.4 kmh 30.01 in1016.3 mb 0.00 in0.0 mm 0.00 in0.0 mm 0.03 in0.8 mm
07:54 AM 71.3°F21.8°C 70.7°F21.5°C 98% 1.4 mph ENE2.3 kmh ENE 2.0 mph3.2 kmh 30.01 in1016.3 mb 0.00 in0.0 mm 0.00 in0.0 mm 0.03 in0.8 mm
07:59 AM 71.3°F21.8°C 70.7°F21.5°C 98% 1.9 mph NE3.1 kmh NE 3.0 mph4.8 kmh 30.01 in1016.3 mb 0.00 in0.0 mm 0.00 in0.0 mm 0.03 in0.8 mm
08:04 AM 71.2°F21.8°C 70.6°F21.4°C 98% 1.2 mph ENE1.9 kmh ENE 3.0 mph4.8 kmh 30.01 in1016.3 mb 0.00 in0.0 mm 0.00 in0.0 mm 0.03 in0.8 mm
08:09 AM 71.3°F21.8°C 70.7°F21.5°C 98% 1.4 mph NNE2.3 kmh NNE 4.0 mph6.4 kmh 30.01 in1016.3 mb 0.00 in0.0 mm 0.00 in0.0 mm 0.03 in0.8 mm
08:14 AM 71.4°F21.9°C 70.8°F21.6°C 98% 2.4 mph NE3.9 kmh NE 4.0 mph6.4 kmh 30.01 in1016.3 mb 0.00 in0.0 mm 0.00 in0.0 mm 0.03 in0.8 mm
08:19 AM 71.5°F21.9°C 70.9°F21.6°C 98% 1.7 mph NE2.7 kmh NE 4.0 mph6.4 kmh 30.01 in1016.3 mb 0.00 in0.0 mm 0.00 in0.0 mm 0.03 in0.8 mm
08:24 AM 71.8°F22.1°C 71.2°F21.8°C 98% 2.1 mph NE3.4 kmh NE 4.0 mph6.4 kmh 30.01 in1016.3 mb 0.00 in0.0 mm 0.00 in0.0 mm 0.03 in0.8 mm
08:29 AM 71.7°F22.1°C 71.1°F21.7°C 98% 3.2 mph NE5.1 kmh NE 6.0 mph9.7 kmh 30.01 in1016.3 mb 0.00 in0.0 mm 0.00 in0.0 mm 0.03 in0.8 mm
08:34 AM 71.7°F22.1°C 71.1°F21.7°C 98% 1.8 mph E2.9 kmh E 6.0 mph9.7 kmh 30.01 in1016.3 mb 0.00 in0.0 mm 0.00 in0.0 mm 0.03 in0.8 mm
08:39 AM 72.0°F22.2°C 71.4°F21.9°C 98% 1.4 mph NE2.3 kmh NE 6.0 mph9.7 kmh 30.01 in1016.3 mb 0.00 in0.0 mm 0.00 in0.0 mm 0.03 in0.8 mm
08:44 AM 71.8°F22.1°C 71.2°F21.8°C 98% 3.1 mph NE5.0 kmh NE 6.0 mph9.7 kmh 30.01 in1016.3 mb 0.00 in0.0 mm 0.00 in0.0 mm 0.03 in0.8 mm
08:49 AM 72.0°F22.2°C 71.4°F21.9°C 98% 2.2 mph NE3.5 kmh NE 6.0 mph9.7 kmh 30.01 in1016.3 mb 0.00 in0.0 mm 0.00 in0.0 mm 0.03 in0.8 mm
08:54 AM 72.2°F22.3°C 71.6°F22.0°C 98% 1.0 mph NE1.6 kmh NE 5.0 mph8.0 kmh 30.01 in1016.3 mb 0.00 in0.0 mm 0.00 in0.0 mm 0.03 in0.8 mm
08:59 AM 72.3°F22.4°C 71.7°F22.1°C 98% 1.0 mph NE1.6 kmh NE 5.0 mph8.0 kmh 30.01 in1016.3 mb 0.00 in0.0 mm 0.00 in0.0 mm 0.03 in0.8 mm
09:04 AM 72.1°F22.3°C 71.2°F21.8°C 97% 1.8 mph NE2.9 kmh NE 4.0 mph6.4 kmh 30.01 in1016.3 mb 0.00 in0.0 mm 0.00 in0.0 mm 0.03 in0.8 mm
09:09 AM 72.4°F22.4°C 71.8°F22.1°C 98% 1.5 mph NE2.4 kmh NE 4.0 mph6.4 kmh 30.01 in1016.3 mb 0.00 in0.0 mm 0.00 in0.0 mm 0.03 in0.8 mm
09:14 AM 72.4°F22.4°C 71.5°F21.9°C 97% 1.6 mph NE2.6 kmh NE 4.0 mph6.4 kmh 30.01 in1016.3 mb 0.00 in0.0 mm 0.00 in0.0 mm 0.03 in0.8 mm
09:19 AM 72.5°F22.5°C 71.6°F22.0°C 97% Calm Calm 4.0 mph6.4 kmh 30.02 in1016.6 mb 0.00 in0.0 mm 0.00 in0.0 mm 0.03 in0.8 mm
09:24 AM 72.6°F22.6°C 71.7°F22.1°C 97% 1.2 mph ENE1.9 kmh ENE 3.0 mph4.8 kmh 30.02 in1016.6 mb 0.00 in0.0 mm 0.00 in0.0 mm 0.03 in0.8 mm
09:29 AM 73.0°F22.8°C 72.1°F22.3°C 97% 1.0 mph ENE1.6 kmh ENE 3.0 mph4.8 kmh 30.02 in1016.6 mb 0.00 in0.0 mm 0.00 in0.0 mm 0.03 in0.8 mm
09:34 AM 73.2°F22.9°C 72.3°F22.4°C 97% 1.0 mph E1.6 kmh E 3.0 mph4.8 kmh 30.02 in1016.6 mb 0.00 in0.0 mm 0.00 in0.0 mm 0.03 in0.8 mm
09:39 AM 73.2°F22.9°C 72.3°F22.4°C 97% 2.3 mph NE3.7 kmh NE 4.0 mph6.4 kmh 30.02 in1016.6 mb 0.00 in0.0 mm 0.00 in0.0 mm 0.03 in0.8 mm
09:44 AM 73.7°F23.2°C 72.8°F22.7°C 97% 1.0 mph N1.6 kmh N 4.0 mph6.4 kmh 30.02 in1016.6 mb 0.00 in0.0 mm 0.00 in0.0 mm 0.03 in0.8 mm
09:49 AM 74.0°F23.3°C 72.8°F22.7°C 96% 1.0 mph NE1.6 kmh NE 4.0 mph6.4 kmh 30.02 in1016.6 mb 0.00 in0.0 mm 0.00 in0.0 mm 0.03 in0.8 mm
09:54 AM 74.3°F23.5°C 73.1°F22.8°C 96% 1.0 mph NE1.6 kmh NE 4.0 mph6.4 kmh 30.02 in1016.6 mb 0.00 in0.0 mm 0.00 in0.0 mm 0.03 in0.8 mm
09:59 AM 74.7°F23.7°C 73.1°F22.8°C 95% 1.5 mph NNE2.4 kmh NNE 3.0 mph4.8 kmh 30.02 in1016.6 mb 0.00 in0.0 mm 0.00 in0.0 mm 0.03 in0.8 mm
10:04 AM 75.1°F23.9°C 73.3°F22.9°C 94% 1.0 mph ESE1.6 kmh ESE 3.0 mph4.8 kmh 30.02 in1016.6 mb 0.00 in0.0 mm 0.00 in0.0 mm 0.03 in0.8 mm
10:09 AM 75.6°F24.2°C 73.4°F23.0°C 93% 1.6 mph ESE2.6 kmh ESE 3.0 mph4.8 kmh 30.02 in1016.6 mb 0.00 in0.0 mm 0.00 in0.0 mm 0.03 in0.8 mm
10:14 AM 76.0°F24.4°C 73.2°F22.9°C 91% 1.4 mph E2.3 kmh E 3.0 mph4.8 kmh 30.02 in1016.6 mb 0.00 in0.0 mm 0.00 in0.0 mm 0.03 in0.8 mm
10:19 AM 76.0°F24.4°C 73.2°F22.9°C 91% 1.1 mph E1.8 kmh E 3.0 mph4.8 kmh 30.02 in1016.6 mb 0.00 in0.0 mm 0.00 in0.0 mm 0.03 in0.8 mm
10:24 AM 76.3°F24.6°C 73.1°F22.8°C 90% 1.4 mph NE2.3 kmh NE 4.0 mph6.4 kmh 30.02 in1016.6 mb 0.00 in0.0 mm 0.00 in0.0 mm 0.03 in0.8 mm
10:29 AM 77.1°F25.1°C 73.3°F22.9°C 88% 2.4 mph ESE3.9 kmh ESE 4.0 mph6.4 kmh 30.02 in1016.6 mb 0.00 in0.0 mm 0.00 in0.0 mm 0.03 in0.8 mm
10:34 AM 77.2°F25.1°C 73.4°F23.0°C 88% 1.7 mph ENE2.7 kmh ENE 4.0 mph6.4 kmh 30.02 in1016.6 mb 0.00 in0.0 mm 0.00 in0.0 mm 0.03 in0.8 mm
10:39 AM 77.7°F25.4°C 73.2°F22.9°C 86% 3.9 mph E6.3 kmh E 7.0 mph11.3 kmh 30.02 in1016.6 mb 0.00 in0.0 mm 0.00 in0.0 mm 0.03 in0.8 mm
10:44 AM 77.4°F25.2°C 73.2°F22.9°C 87% 1.2 mph SE1.9 kmh SE 7.0 mph11.3 kmh 30.02 in1016.6 mb 0.00 in0.0 mm 0.00 in0.0 mm 0.03 in0.8 mm
10:49 AM 77.7°F25.4°C 73.5°F23.1°C 87% 4.0 mph ESE6.4 kmh ESE 7.0 mph11.3 kmh 30.02 in1016.6 mb 0.00 in0.0 mm 0.00 in0.0 mm 0.03 in0.8 mm
10:54 AM 78.4°F25.8°C 73.6°F23.1°C 85% 2.3 mph ESE3.7 kmh ESE 7.0 mph11.3 kmh 30.02 in1016.6 mb 0.00 in0.0 mm 0.00 in0.0 mm 0.03 in0.8 mm
10:59 AM 78.4°F25.8°C 73.5°F23.1°C 85% 2.2 mph SE3.5 kmh SE 7.0 mph11.3 kmh 30.02 in1016.6 mb 0.00 in0.0 mm 0.00 in0.0 mm 0.03 in0.8 mm
11:04 AM 78.5°F25.8°C 72.6°F22.6°C 82% 2.8 mph E4.5 kmh E 7.0 mph11.3 kmh 30.02 in1016.6 mb 0.00 in0.0 mm 0.00 in0.0 mm 0.03 in0.8 mm
11:09 AM 79.0°F26.1°C 72.4°F22.4°C 80% 2.0 mph E3.2 kmh E 6.0 mph9.7 kmh 30.02 in1016.6 mb 0.00 in0.0 mm 0.00 in0.0 mm 0.03 in0.8 mm
11:14 AM 79.2°F26.2°C 72.2°F22.3°C 79% 3.2 mph E5.1 kmh E 7.0 mph11.3 kmh 30.02 in1016.6 mb 0.00 in0.0 mm 0.00 in0.0 mm 0.03 in0.8 mm
11:19 AM 79.5°F26.4°C 72.5°F22.5°C 79% 2.6 mph ESE4.2 kmh ESE 7.0 mph11.3 kmh 30.01 in1016.3 mb 0.00 in0.0 mm 0.00 in0.0 mm 0.03 in0.8 mm
11:24 AM 80.1°F26.7°C 72.2°F22.3°C 77% 1.0 mph ESE1.6 kmh ESE 7.0 mph11.3 kmh 30.01 in1016.3 mb 0.00 in0.0 mm 0.00 in0.0 mm 0.03 in0.8 mm
11:29 AM 81.2°F27.3°C 73.5°F23.1°C 77% 2.5 mph ESE4.0 kmh ESE 7.0 mph11.3 kmh 30.01 in1016.3 mb 0.00 in0.0 mm 0.00 in0.0 mm 0.03 in0.8 mm
11:34 AM 81.4°F27.4°C 72.9°F22.7°C 75% 1.0 mph SE1.6 kmh SE 7.0 mph11.3 kmh 30.01 in1016.3 mb 0.00 in0.0 mm 0.00 in0.0 mm 0.03 in0.8 mm
11:39 AM 81.4°F27.4°C 73.3°F22.9°C 76% 3.6 mph SE5.8 kmh SE 6.0 mph9.7 kmh 30.01 in1016.3 mb 0.00 in0.0 mm 0.00 in0.0 mm 0.03 in0.8 mm
11:44 AM 81.5°F27.5°C 72.0°F22.2°C 73% 5.0 mph ENE8.0 kmh ENE 8.0 mph12.9 kmh 30.01 in1016.3 mb 0.00 in0.0 mm 0.00 in0.0 mm 0.03 in0.8 mm
11:49 AM 81.6°F27.6°C 71.9°F22.2°C 72% 2.9 mph E4.7 kmh E 8.0 mph12.9 kmh 30.01 in1016.3 mb 0.00 in0.0 mm 0.00 in0.0 mm 0.03 in0.8 mm
11:54 AM 81.6°F27.6°C 71.9°F22.2°C 72% 2.8 mph E4.5 kmh E 8.0 mph12.9 kmh 30.00 in1015.9 mb 0.00 in0.0 mm 0.00 in0.0 mm 0.03 in0.8 mm
11:59 AM 81.9°F27.7°C 72.2°F22.3°C 72% 2.9 mph ESE4.7 kmh ESE 8.0 mph12.9 kmh 30.00 in1015.9 mb 0.00 in0.0 mm 0.00 in0.0 mm 0.03 in0.8 mm
12:04 PM 82.1°F27.8°C 72.0°F22.2°C 71% 2.3 mph SE3.7 kmh SE 8.0 mph12.9 kmh 30.00 in1015.9 mb 0.00 in0.0 mm 0.00 in0.0 mm 0.03 in0.8 mm
12:09 PM 82.5°F28.1°C 72.0°F22.2°C 70% 5.1 mph E8.2 kmh E 9.0 mph14.5 kmh 30.00 in1015.9 mb 0.00 in0.0 mm 0.00 in0.0 mm 0.03 in0.8 mm
12:14 PM 82.2°F27.9°C 71.7°F22.1°C 70% 3.4 mph ENE5.5 kmh ENE 9.0 mph14.5 kmh 30.00 in1015.9 mb 0.00 in0.0 mm 0.00 in0.0 mm 0.03 in0.8 mm
12:19 PM 82.1°F27.8°C 70.7°F21.5°C 68% 4.3 mph E6.9 kmh E 9.0 mph14.5 kmh 29.99 in1015.6 mb 0.00 in0.0 mm 0.00 in0.0 mm 0.03 in0.8 mm
12:24 PM 82.6°F28.1°C 71.0°F21.7°C 68% 3.3 mph E5.3 kmh E 9.0 mph14.5 kmh 29.99 in1015.6 mb 0.00 in0.0 mm 0.00 in0.0 mm 0.03 in0.8 mm
12:29 PM 83.1°F28.4°C 71.4°F21.9°C 68% 4.7 mph SE7.6 kmh SE 9.0 mph14.5 kmh 29.99 in1015.6 mb 0.00 in0.0 mm 0.00 in0.0 mm 0.03 in0.8 mm
12:33 PM 83.3°F28.5°C 71.9°F22.2°C 68% 2.1 mph SE3.4 kmh SE 9.0 mph14.5 kmh 29.99 in1015.6 mb 0.00 in0.0 mm 0.00 in0.0 mm 0.03 in0.8 mm
12:38 PM 83.7°F28.7°C 70.9°F21.6°C 65% 3.4 mph E5.5 kmh E 10.0 mph16.1 kmh 29.99 in1015.6 mb 0.00 in0.0 mm 0.00 in0.0 mm 0.03 in0.8 mm
12:43 PM 83.6°F28.7°C 70.4°F21.3°C 64% 2.8 mph NE4.5 kmh NE 10.0 mph16.1 kmh 29.98 in1015.2 mb 0.00 in0.0 mm 0.00 in0.0 mm 0.03 in0.8 mm
12:48 PM 84.0°F28.9°C 69.8°F21.0°C 62% 4.1 mph E6.6 kmh E 10.0 mph16.1 kmh 29.98 in1015.2 mb 0.00 in0.0 mm 0.00 in0.0 mm 0.03 in0.8 mm
12:53 PM 83.8°F28.8°C 70.6°F21.4°C 64% 2.3 mph E3.7 kmh E 10.0 mph16.1 kmh 29.98 in1015.2 mb 0.00 in0.0 mm 0.00 in0.0 mm 0.03 in0.8 mm
12:58 PM 83.9°F28.8°C 70.0°F21.1°C 63% 1.5 mph SE2.4 kmh SE 8.0 mph12.9 kmh 29.98 in1015.2 mb 0.00 in0.0 mm 0.00 in0.0 mm 0.03 in0.8 mm
01:03 PM 84.7°F29.3°C 70.2°F21.2°C 62% 3.0 mph ENE4.8 kmh ENE 8.0 mph12.9 kmh 29.97 in1014.9 mb 0.00 in0.0 mm 0.00 in0.0 mm 0.03 in0.8 mm
01:08 PM 84.8°F29.3°C 70.6°F21.4°C 62% 1.7 mph N2.7 kmh N 7.0 mph11.3 kmh 29.97 in1014.9 mb 0.00 in0.0 mm 0.00 in0.0 mm 0.03 in0.8 mm
01:13 PM 85.2°F29.6°C 71.0°F21.7°C 62% 4.0 mph E6.4 kmh E 8.0 mph12.9 kmh 29.97 in1014.9 mb 0.00 in0.0 mm 0.00 in0.0 mm 0.03 in0.8 mm
01:18 PM 84.5°F29.2°C 69.8°F21.0°C 61% 2.9 mph E4.7 kmh E 8.0 mph12.9 kmh 29.96 in1014.6 mb 0.00 in0.0 mm 0.00 in0.0 mm 0.03 in0.8 mm
01:23 PM 85.0°F29.4°C 70.5°F21.4°C 62% 3.8 mph E6.1 kmh E 8.0 mph12.9 kmh 29.96 in1014.6 mb 0.00 in0.0 mm 0.00 in0.0 mm 0.03 in0.8 mm
01:28 PM 85.1°F29.5°C 70.4°F21.3°C 61% 2.6 mph ESE4.2 kmh ESE 8.0 mph12.9 kmh 29.96 in1014.6 mb 0.00 in0.0 mm 0.00 in0.0 mm 0.03 in0.8 mm
01:33 PM 85.4°F29.7°C 70.7°F21.5°C 61% 1.6 mph E2.6 kmh E 8.0 mph12.9 kmh 29.95 in1014.2 mb 0.00 in0.0 mm 0.00 in0.0 mm 0.03 in0.8 mm
01:38 PM 86.0°F30.0°C 71.7°F22.1°C 62% 2.2 mph ESE3.5 kmh ESE 8.0 mph12.9 kmh 29.95 in1014.2 mb 0.00 in0.0 mm 0.00 in0.0 mm 0.03 in0.8 mm
01:43 PM 85.5°F29.7°C 69.3°F20.7°C 58% 2.3 mph NE3.7 kmh NE 11.0 mph17.7 kmh 29.95 in1014.2 mb 0.00 in0.0 mm 0.00 in0.0 mm 0.03 in0.8 mm
01:48 PM 85.7°F29.8°C 70.5°F21.4°C 60% 2.3 mph ENE3.7 kmh ENE 11.0 mph17.7 kmh 29.95 in1014.2 mb 0.00 in0.0 mm 0.00 in0.0 mm 0.03 in0.8 mm
01:53 PM 85.7°F29.8°C 70.0°F21.1°C 59% 2.0 mph E3.2 kmh E 11.0 mph17.7 kmh 29.94 in1013.9 mb 0.00 in0.0 mm 0.00 in0.0 mm 0.03 in0.8 mm
01:58 PM 86.2°F30.1°C 70.7°F21.5°C 60% 1.2 mph SE1.9 kmh SE 11.0 mph17.7 kmh 29.94 in1013.9 mb 0.00 in0.0 mm 0.00 in0.0 mm 0.03 in0.8 mm
02:03 PM 86.1°F30.1°C 70.1°F21.2°C 59% 3.5 mph SE5.6 kmh SE 8.0 mph12.9 kmh 29.94 in1013.9 mb 0.00 in0.0 mm 0.00 in0.0 mm 0.03 in0.8 mm
02:08 PM 85.8°F29.9°C 70.1°F21.2°C 59% 1.7 mph SE2.7 kmh SE 8.0 mph12.9 kmh 29.94 in1013.9 mb 0.00 in0.0 mm 0.00 in0.0 mm 0.03 in0.8 mm
02:13 PM 85.9°F29.9°C 70.2°F21.2°C 59% 1.5 mph SE2.4 kmh SE 8.0 mph12.9 kmh 29.94 in1013.9 mb 0.00 in0.0 mm 0.00 in0.0 mm 0.03 in0.8 mm
02:18 PM 86.5°F30.3°C 71.7°F22.1°C 61% 1.0 mph N1.6 kmh N 8.0 mph12.9 kmh 29.94 in1013.9 mb 0.00 in0.0 mm 0.00 in0.0 mm 0.03 in0.8 mm
02:23 PM 86.3°F30.2°C 70.0°F21.1°C 58% 4.4 mph E7.1 kmh E 8.0 mph12.9 kmh 29.94 in1013.9 mb 0.00 in0.0 mm 0.00 in0.0 mm 0.03 in0.8 mm
02:28 PM 86.4°F30.2°C 70.1°F21.2°C 58% 1.4 mph E2.3 kmh E 8.0 mph12.9 kmh 29.93 in1013.5 mb 0.00 in0.0 mm 0.00 in0.0 mm 0.03 in0.8 mm
02:33 PM 86.6°F30.3°C 70.8°F21.6°C 59% 2.8 mph E4.5 kmh E 8.0 mph12.9 kmh 29.93 in1013.5 mb 0.00 in0.0 mm 0.00 in0.0 mm 0.03 in0.8 mm
02:38 PM 86.3°F30.2°C 69.5°F20.8°C 57% 4.0 mph E6.4 kmh E 8.0 mph12.9 kmh 29.93 in1013.5 mb 0.00 in0.0 mm 0.00 in0.0 mm 0.03 in0.8 mm
02:43 PM 86.3°F30.2°C 69.5°F20.8°C 57% 3.1 mph NE5.0 kmh NE 8.0 mph12.9 kmh 29.93 in1013.5 mb 0.00 in0.0 mm 0.00 in0.0 mm 0.03 in0.8 mm
02:48 PM 86.8°F30.4°C 69.7°F20.9°C 57% 3.3 mph NE5.3 kmh NE 8.0 mph12.9 kmh 29.92 in1013.2 mb 0.00 in0.0 mm 0.00 in0.0 mm 0.03 in0.8 mm
02:53 PM 86.6°F30.3°C 70.8°F21.6°C 59% 2.2 mph E3.5 kmh E 7.0 mph11.3 kmh 29.92 in1013.2 mb 0.00 in0.0 mm 0.00 in0.0 mm 0.03 in0.8 mm
02:58 PM 86.4°F30.2°C 70.1°F21.2°C 58% 2.8 mph ENE4.5 kmh ENE 7.0 mph11.3 kmh 29.92 in1013.2 mb 0.00 in0.0 mm 0.00 in0.0 mm 0.03 in0.8 mm
03:03 PM 86.5°F30.3°C 70.7°F21.5°C 59% Calm Calm 7.0 mph11.3 kmh 29.92 in1013.2 mb 0.00 in0.0 mm 0.00 in0.0 mm 0.03 in0.8 mm
03:08 PM 86.7°F30.4°C 69.9°F21.1°C 57% 3.6 mph E5.8 kmh E 7.0 mph11.3 kmh 29.92 in1013.2 mb 0.00 in0.0 mm 0.00 in0.0 mm 0.03 in0.8 mm
03:13 PM 86.7°F30.4°C 69.9°F21.1°C 57% 2.5 mph E4.0 kmh E 7.0 mph11.3 kmh 29.92 in1013.2 mb 0.00 in0.0 mm 0.00 in0.0 mm 0.03 in0.8 mm
03:18 PM 87.2°F30.7°C 70.9°F21.6°C 58% 2.6 mph SE4.2 kmh SE 6.0 mph9.7 kmh 29.92 in1013.2 mb 0.00 in0.0 mm 0.00 in0.0 mm 0.03 in0.8 mm
03:23 PM 87.3°F30.7°C 69.7°F20.9°C 56% 2.5 mph SE4.0 kmh SE 6.0 mph9.7 kmh 29.91 in1012.9 mb 0.00 in0.0 mm 0.00 in0.0 mm 0.03 in0.8 mm
03:28 PM 87.7°F30.9°C 70.8°F21.6°C 57% 3.4 mph SE5.5 kmh SE 8.0 mph12.9 kmh 29.91 in1012.9 mb 0.00 in0.0 mm 0.00 in0.0 mm 0.03 in0.8 mm
03:33 PM 87.8°F31.0°C 69.9°F21.1°C 55% 3.1 mph ESE5.0 kmh ESE 8.0 mph12.9 kmh 29.92 in1013.2 mb 0.00 in0.0 mm 0.00 in0.0 mm 0.03 in0.8 mm
03:38 PM 88.0°F31.1°C 70.6°F21.4°C 56% 2.7 mph ESE4.3 kmh ESE 8.0 mph12.9 kmh 29.91 in1012.9 mb 0.00 in0.0 mm 0.00 in0.0 mm 0.03 in0.8 mm
03:43 PM 88.3°F31.3°C 71.1°F21.7°C 57% 4.4 mph SE7.1 kmh SE 8.0 mph12.9 kmh 29.91 in1012.9 mb 0.00 in0.0 mm 0.00 in0.0 mm 0.03 in0.8 mm
03:49 PM 88.2°F31.2°C 71.3°F21.8°C 57% 2.2 mph SE3.5 kmh SE 7.0 mph11.3 kmh 29.91 in1012.9 mb 0.00 in0.0 mm 0.00 in0.0 mm 0.03 in0.8 mm
03:53 PM 88.4°F31.3°C 71.0°F21.7°C 56% 2.3 mph ENE3.7 kmh ENE 7.0 mph11.3 kmh 29.91 in1012.9 mb 0.00 in0.0 mm 0.00 in0.0 mm 0.03 in0.8 mm
03:58 PM 88.2°F31.2°C 70.2°F21.2°C 55% 3.8 mph NE6.1 kmh NE 8.0 mph12.9 kmh 29.91 in1012.9 mb 0.00 in0.0 mm 0.00 in0.0 mm 0.03 in0.8 mm
04:04 PM 88.1°F31.2°C 70.1°F21.2°C 55% 2.5 mph ENE4.0 kmh ENE 8.0 mph12.9 kmh 29.91 in1012.9 mb 0.00 in0.0 mm 0.00 in0.0 mm 0.03 in0.8 mm
04:09 PM 88.1°F31.2°C 70.1°F21.2°C 55% 3.7 mph ENE6.0 kmh ENE 9.0 mph14.5 kmh 29.91 in1012.9 mb 0.00 in0.0 mm 0.00 in0.0 mm 0.03 in0.8 mm
04:14 PM 88.2°F31.2°C 69.7°F20.9°C 54% 4.3 mph ESE6.9 kmh ESE 9.0 mph14.5 kmh 29.91 in1012.9 mb 0.00 in0.0 mm 0.00 in0.0 mm 0.03 in0.8 mm
04:19 PM 88.0°F31.1°C 69.8°F21.0°C 55% 3.0 mph E4.8 kmh E 9.0 mph14.5 kmh 29.91 in1012.9 mb 0.00 in0.0 mm 0.00 in0.0 mm 0.03 in0.8 mm
04:24 PM 87.8°F31.0°C 69.3°F20.7°C 54% 2.8 mph NE4.5 kmh NE 9.0 mph14.5 kmh 29.91 in1012.9 mb 0.00 in0.0 mm 0.00 in0.0 mm 0.03 in0.8 mm
04:29 PM 87.6°F30.9°C 69.7°F20.9°C 55% 2.5 mph NE4.0 kmh NE 7.0 mph11.3 kmh 29.91 in1012.9 mb 0.00 in0.0 mm 0.00 in0.0 mm 0.03 in0.8 mm
04:34 PM 87.9°F31.1°C 71.0°F21.7°C 57% 1.0 mph NW1.6 kmh NW 7.0 mph11.3 kmh 29.91 in1012.9 mb 0.00 in0.0 mm 0.00 in0.0 mm 0.03 in0.8 mm
04:39 PM 88.3°F31.3°C 69.8°F21.0°C 54% 3.0 mph NNE4.8 kmh NNE 7.0 mph11.3 kmh 29.91 in1012.9 mb 0.00 in0.0 mm 0.00 in0.0 mm 0.03 in0.8 mm
04:44 PM 88.2°F31.2°C 70.2°F21.2°C 55% 2.0 mph NW3.2 kmh NW 6.0 mph9.7 kmh 29.91 in1012.9 mb 0.00 in0.0 mm 0.00 in0.0 mm 0.03 in0.8 mm
04:49 PM 88.6°F31.4°C 70.4°F21.3°C 55% Calm Calm 6.0 mph9.7 kmh 29.91 in1012.9 mb 0.00 in0.0 mm 0.00 in0.0 mm 0.03 in0.8 mm
04:54 PM 88.2°F31.2°C 70.2°F21.2°C 55% Calm Calm 6.0 mph9.7 kmh 29.91 in1012.9 mb 0.00 in0.0 mm 0.00 in0.0 mm 0.03 in0.8 mm
04:59 PM 87.8°F31.0°C 70.4°F21.3°C 56% Calm Calm 4.0 mph6.4 kmh 29.91 in1012.9 mb 0.00 in0.0 mm 0.00 in0.0 mm 0.03 in0.8 mm
05:04 PM 88.2°F31.2°C 70.8°F21.6°C 56% 1.0 mph NE1.6 kmh NE 2.0 mph3.2 kmh 29.91 in1012.9 mb 0.00 in0.0 mm 0.00 in0.0 mm 0.03 in0.8 mm
05:09 PM 88.6°F31.4°C 70.1°F21.2°C 54% 1.0 mph E1.6 kmh E 2.0 mph3.2 kmh 29.91 in1012.9 mb 0.00 in0.0 mm 0.00 in0.0 mm 0.03 in0.8 mm
05:14 PM 88.9°F31.6°C 70.6°F21.4°C 55% 1.0 mph NE1.6 kmh NE 2.0 mph3.2 kmh 29.91 in1012.9 mb 0.00 in0.0 mm 0.00 in0.0 mm 0.03 in0.8 mm
05:19 PM 89.6°F32.0°C 71.0°F21.7°C 54% Calm Calm 2.0 mph3.2 kmh 29.90 in1012.5 mb 0.00 in0.0 mm 0.00 in0.0 mm 0.03 in0.8 mm
05:24 PM 89.9°F32.2°C 69.5°F20.8°C 51% 2.5 mph E4.0 kmh E 4.0 mph6.4 kmh 29.90 in1012.5 mb 0.00 in0.0 mm 0.00 in0.0 mm 0.03 in0.8 mm
05:29 PM 89.0°F31.7°C 68.5°F20.3°C 51% 1.3 mph E2.1 kmh E 4.0 mph6.4 kmh 29.90 in1012.5 mb 0.00 in0.0 mm 0.00 in0.0 mm 0.03 in0.8 mm
05:34 PM 88.8°F31.6°C 69.1°F20.6°C 52% 2.5 mph E4.0 kmh E 5.0 mph8.0 kmh 29.90 in1012.5 mb 0.00 in0.0 mm 0.00 in0.0 mm 0.03 in0.8 mm
05:39 PM 88.7°F31.5°C 69.6°F20.9°C 53% 1.3 mph SE2.1 kmh SE 5.0 mph8.0 kmh 29.90 in1012.5 mb 0.00 in0.0 mm 0.00 in0.0 mm 0.03 in0.8 mm
05:44 PM 88.5°F31.4°C 68.8°F20.4°C 52% 1.9 mph E3.1 kmh E 5.0 mph8.0 kmh 29.90 in1012.5 mb 0.00 in0.0 mm 0.00 in0.0 mm 0.03 in0.8 mm
05:49 PM 88.0°F31.1°C 68.4°F20.2°C 52% 1.9 mph ESE3.1 kmh ESE 5.0 mph8.0 kmh 29.90 in1012.5 mb 0.00 in0.0 mm 0.00 in0.0 mm 0.03 in0.8 mm
05:54 PM 87.9°F31.1°C 68.8°F20.4°C 53% 1.2 mph E1.9 kmh E 4.0 mph6.4 kmh 29.90 in1012.5 mb 0.00 in0.0 mm 0.00 in0.0 mm 0.03 in0.8 mm
05:59 PM 88.1°F31.2°C 69.6°F20.9°C 54% 1.0 mph E1.6 kmh E 4.0 mph6.4 kmh 29.90 in1012.5 mb 0.00 in0.0 mm 0.00 in0.0 mm 0.03 in0.8 mm
06:04 PM 87.9°F31.1°C 68.8°F20.4°C 53% 1.1 mph E1.8 kmh E 4.0 mph6.4 kmh 29.90 in1012.5 mb 0.00 in0.0 mm 0.00 in0.0 mm 0.03 in0.8 mm
06:09 PM 87.5°F30.8°C 69.0°F20.6°C 54% Calm Calm 2.0 mph3.2 kmh 29.90 in1012.5 mb 0.00 in0.0 mm 0.00 in0.0 mm 0.03 in0.8 mm
06:14 PM 87.2°F30.7°C 68.2°F20.1°C 53% 1.0 mph E1.6 kmh E 2.0 mph3.2 kmh 29.91 in1012.9 mb 0.00 in0.0 mm 0.00 in0.0 mm 0.03 in0.8 mm
06:19 PM 87.2°F30.7°C 69.3°F20.7°C 55% Calm Calm 2.0 mph3.2 kmh 29.91 in1012.9 mb 0.00 in0.0 mm 0.00 in0.0 mm 0.03 in0.8 mm
06:24 PM 87.0°F30.6°C 68.3°F20.2°C 54% Calm Calm 1.0 mph1.6 kmh 29.91 in1012.9 mb 0.00 in0.0 mm 0.00 in0.0 mm 0.03 in0.8 mm
06:29 PM 86.8°F30.4°C 68.9°F20.5°C 55% 1.0 mph NE1.6 kmh NE 1.0 mph1.6 kmh 29.91 in1012.9 mb 0.00 in0.0 mm 0.00 in0.0 mm 0.03 in0.8 mm
06:32 PM 86.6°F30.3°C 69.3°F20.7°C 56% Calm Calm 1.0 mph1.6 kmh 29.91 in1012.9 mb 0.00 in0.0 mm 0.00 in0.0 mm 0.03 in0.8 mm
06:37 PM 86.2°F30.1°C 69.4°F20.8°C 57% 1.3 mph NW2.1 kmh NW 2.0 mph3.2 kmh 29.91 in1012.9 mb 0.00 in0.0 mm 0.00 in0.0 mm 0.03 in0.8 mm
06:43 PM 85.9°F29.9°C 70.2°F21.2°C 59% 1.3 mph NNW2.1 kmh NNW 2.0 mph3.2 kmh 29.91 in1012.9 mb 0.00 in0.0 mm 0.00 in0.0 mm 0.03 in0.8 mm
06:47 PM 85.5°F29.7°C 70.8°F21.6°C 61% Calm Calm 2.0 mph3.2 kmh 29.91 in1012.9 mb 0.00 in0.0 mm 0.00 in0.0 mm 0.03 in0.8 mm
06:52 PM 85.3°F29.6°C 71.1°F21.7°C 62% Calm Calm 2.0 mph3.2 kmh 29.91 in1012.9 mb 0.00 in0.0 mm 0.00 in0.0 mm 0.03 in0.8 mm
06:58 PM 85.0°F29.4°C 70.8°F21.6°C 62% 1.0 mph NNW1.6 kmh NNW 2.0 mph3.2 kmh 29.91 in1012.9 mb 0.00 in0.0 mm 0.00 in0.0 mm 0.03 in0.8 mm
07:03 PM 84.8°F29.3°C 70.8°F21.6°C 63% Calm Calm 2.0 mph3.2 kmh 29.91 in1012.9 mb 0.00 in0.0 mm 0.00 in0.0 mm 0.03 in0.8 mm
07:08 PM 84.7°F29.3°C 71.0°F21.7°C 63% Calm Calm 2.0 mph3.2 kmh 29.91 in1012.9 mb 0.00 in0.0 mm 0.00 in0.0 mm 0.03 in0.8 mm
07:13 PM 84.5°F29.2°C 71.0°F21.7°C 64% Calm Calm 1.0 mph1.6 kmh 29.91 in1012.9 mb 0.00 in0.0 mm 0.00 in0.0 mm 0.03 in0.8 mm
07:18 PM 84.3°F29.1°C 71.1°F21.7°C 64% Calm Calm 1.0 mph1.6 kmh 29.92 in1013.2 mb 0.00 in0.0 mm 0.00 in0.0 mm 0.03 in0.8 mm
07:23 PM 84.2°F29.0°C 71.4°F21.9°C 65% Calm Calm 1.0 mph1.6 kmh 29.92 in1013.2 mb 0.00 in0.0 mm 0.00 in0.0 mm 0.03 in0.8 mm
07:28 PM 84.0°F28.9°C 71.0°F21.7°C 65% Calm Calm 1.0 mph1.6 kmh 29.92 in1013.2 mb 0.00 in0.0 mm 0.00 in0.0 mm 0.03 in0.8 mm
07:33 PM 83.8°F28.8°C 71.5°F21.9°C 66% Calm Calm 1.0 mph1.6 kmh 29.92 in1013.2 mb 0.00 in0.0 mm 0.00 in0.0 mm 0.03 in0.8 mm
07:38 PM 83.6°F28.7°C 71.7°F22.1°C 67% 1.0 mph ENE1.6 kmh ENE 1.0 mph1.6 kmh 29.92 in1013.2 mb 0.00 in0.0 mm 0.00 in0.0 mm 0.03 in0.8 mm
07:43 PM 83.5°F28.6°C 71.8°F22.1°C 68% Calm Calm 1.0 mph1.6 kmh 29.92 in1013.2 mb 0.00 in0.0 mm 0.00 in0.0 mm 0.03 in0.8 mm
07:48 PM 83.2°F28.4°C 71.8°F22.1°C 68% Calm Calm 1.0 mph1.6 kmh 29.92 in1013.2 mb 0.00 in0.0 mm 0.00 in0.0 mm 0.03 in0.8 mm
07:53 PM 83.0°F28.3°C 71.6°F22.0°C 68% Calm Calm 1.0 mph1.6 kmh 29.93 in1013.5 mb 0.00 in0.0 mm 0.00 in0.0 mm 0.03 in0.8 mm
07:58 PM 82.8°F28.2°C 71.8°F22.1°C 69% Calm Calm 1.0 mph1.6 kmh 29.92 in1013.2 mb 0.00 in0.0 mm 0.00 in0.0 mm 0.03 in0.8 mm
08:03 PM 82.5°F28.1°C 71.5°F21.9°C 69% 1.0 mph SW1.6 kmh SW 1.0 mph1.6 kmh 29.92 in1013.2 mb 0.00 in0.0 mm 0.00 in0.0 mm 0.03 in0.8 mm
08:08 PM 81.9°F27.7°C 71.6°F22.0°C 71% Calm Calm 1.0 mph1.6 kmh 29.93 in1013.5 mb 0.00 in0.0 mm 0.00 in0.0 mm 0.03 in0.8 mm
08:13 PM 81.3°F27.4°C 72.0°F22.2°C 73% 1.0 mph WNW1.6 kmh WNW 1.0 mph1.6 kmh 29.93 in1013.5 mb 0.00 in0.0 mm 0.00 in0.0 mm 0.03 in0.8 mm
08:18 PM 81.1°F27.3°C 71.8°F22.1°C 73% 1.0 mph WNW1.6 kmh WNW 2.0 mph3.2 kmh 29.93 in1013.5 mb 0.00 in0.0 mm 0.00 in0.0 mm 0.03 in0.8 mm
08:23 PM 81.0°F27.2°C 71.5°F21.9°C 73% 1.0 mph WNW1.6 kmh WNW 2.0 mph3.2 kmh 29.93 in1013.5 mb 0.00 in0.0 mm 0.00 in0.0 mm 0.03 in0.8 mm
08:28 PM 81.2°F27.3°C 71.9°F22.2°C 73% 1.3 mph WNW2.1 kmh WNW 4.0 mph6.4 kmh 29.93 in1013.5 mb 0.00 in0.0 mm 0.00 in0.0 mm 0.03 in0.8 mm
08:33 PM 80.9°F27.2°C 71.8°F22.1°C 74% 1.6 mph W2.6 kmh W 4.0 mph6.4 kmh 29.94 in1013.9 mb 0.00 in0.0 mm 0.00 in0.0 mm 0.03 in0.8 mm
08:38 PM 80.5°F26.9°C 72.0°F22.2°C 75% 1.3 mph NW2.1 kmh NW 4.0 mph6.4 kmh 29.94 in1013.9 mb 0.00 in0.0 mm 0.00 in0.0 mm 0.03 in0.8 mm
08:43 PM 80.3°F26.8°C 71.8°F22.1°C 75% 1.0 mph WNW1.6 kmh WNW 4.0 mph6.4 kmh 29.94 in1013.9 mb 0.00 in0.0 mm 0.00 in0.0 mm 0.03 in0.8 mm
08:48 PM 79.9°F26.6°C 71.8°F22.1°C 76% 1.2 mph WNW1.9 kmh WNW 3.0 mph4.8 kmh 29.94 in1013.9 mb 0.00 in0.0 mm 0.00 in0.0 mm 0.03 in0.8 mm
08:53 PM 79.7°F26.5°C 71.8°F22.1°C 77% 1.2 mph NW1.9 kmh NW 3.0 mph4.8 kmh 29.94 in1013.9 mb 0.00 in0.0 mm 0.00 in0.0 mm 0.03 in0.8 mm
08:58 PM 79.4°F26.3°C 71.7°F22.1°C 77% 1.0 mph WNW1.6 kmh WNW 3.0 mph4.8 kmh 29.94 in1013.9 mb 0.00 in0.0 mm 0.00 in0.0 mm 0.03 in0.8 mm
09:03 PM 79.2°F26.2°C 71.9°F22.2°C 78% 1.3 mph WNW2.1 kmh WNW 3.0 mph4.8 kmh 29.95 in1014.2 mb 0.00 in0.0 mm 0.00 in0.0 mm 0.03 in0.8 mm
09:08 PM 79.1°F26.2°C 71.6°F22.0°C 78% 1.5 mph WNW2.4 kmh WNW 3.0 mph4.8 kmh 29.95 in1014.2 mb 0.00 in0.0 mm 0.00 in0.0 mm 0.03 in0.8 mm
09:13 PM 78.9°F26.1°C 71.6°F22.0°C 78% 1.3 mph W2.1 kmh W 3.0 mph4.8 kmh 29.95 in1014.2 mb 0.00 in0.0 mm 0.00 in0.0 mm 0.03 in0.8 mm
09:18 PM 78.7°F25.9°C 71.8°F22.1°C 79% 1.0 mph W1.6 kmh W 3.0 mph4.8 kmh 29.95 in1014.2 mb 0.00 in0.0 mm 0.00 in0.0 mm 0.03 in0.8 mm
09:23 PM 78.5°F25.8°C 71.6°F22.0°C 79% 1.3 mph NW2.1 kmh NW 3.0 mph4.8 kmh 29.95 in1014.2 mb 0.00 in0.0 mm 0.00 in0.0 mm 0.03 in0.8 mm
09:28 PM 78.4°F25.8°C 71.8°F22.1°C 80% 1.9 mph W3.1 kmh W 4.0 mph6.4 kmh 29.95 in1014.2 mb 0.00 in0.0 mm 0.00 in0.0 mm 0.03 in0.8 mm
09:33 PM 78.2°F25.7°C 71.5°F21.9°C 80% 1.3 mph NW2.1 kmh NW 4.0 mph6.4 kmh 29.95 in1014.2 mb 0.00 in0.0 mm 0.00 in0.0 mm 0.03 in0.8 mm
09:38 PM 78.1°F25.6°C 71.9°F22.2°C 81% 2.0 mph NW3.2 kmh NW 4.0 mph6.4 kmh 29.95 in1014.2 mb 0.00 in0.0 mm 0.00 in0.0 mm 0.03 in0.8 mm
09:43 PM 78.0°F25.6°C 71.8°F22.1°C 81% 1.9 mph NW3.1 kmh NW 4.0 mph6.4 kmh 29.94 in1013.9 mb 0.00 in0.0 mm 0.00 in0.0 mm 0.03 in0.8 mm
09:48 PM 77.9°F25.5°C 72.0°F22.2°C 82% 1.0 mph WSW1.6 kmh WSW 3.0 mph4.8 kmh 29.94 in1013.9 mb 0.00 in0.0 mm 0.00 in0.0 mm 0.03 in0.8 mm
09:53 PM 77.8°F25.4°C 71.9°F22.2°C 82% 1.8 mph NW2.9 kmh NW 3.0 mph4.8 kmh 29.94 in1013.9 mb 0.00 in0.0 mm 0.00 in0.0 mm 0.03 in0.8 mm
09:58 PM 77.7°F25.4°C 71.8°F22.1°C 82% 1.8 mph NNW2.9 kmh NNW 3.0 mph4.8 kmh 29.94 in1013.9 mb 0.00 in0.0 mm 0.00 in0.0 mm 0.03 in0.8 mm
10:03 PM 77.5°F25.3°C 72.0°F22.2°C 83% 1.0 mph W1.6 kmh W 3.0 mph4.8 kmh 29.94 in1013.9 mb 0.00 in0.0 mm 0.00 in0.0 mm 0.03 in0.8 mm
10:08 PM 77.4°F25.2°C 71.9°F22.2°C 83% 1.8 mph N2.9 kmh N 4.0 mph6.4 kmh 29.94 in1013.9 mb 0.00 in0.0 mm 0.00 in0.0 mm 0.03 in0.8 mm
10:13 PM 77.4°F25.2°C 72.2°F22.3°C 84% 1.4 mph NNW2.3 kmh NNW 4.0 mph6.4 kmh 29.94 in1013.9 mb 0.00 in0.0 mm 0.00 in0.0 mm 0.03 in0.8 mm
10:18 PM 77.2°F25.1°C 72.0°F22.2°C 84% 1.1 mph NW1.8 kmh NW 4.0 mph6.4 kmh 29.95 in1014.2 mb 0.00 in0.0 mm 0.00 in0.0 mm 0.03 in0.8 mm
10:23 PM 77.0°F25.0°C 71.8°F22.1°C 84% 1.8 mph NW2.9 kmh NW 4.0 mph6.4 kmh 29.95 in1014.2 mb 0.00 in0.0 mm 0.00 in0.0 mm 0.03 in0.8 mm
10:28 PM 77.0°F25.0°C 71.8°F22.1°C 84% 1.0 mph NW1.6 kmh NW 4.0 mph6.4 kmh 29.95 in1014.2 mb 0.00 in0.0 mm 0.00 in0.0 mm 0.03 in0.8 mm
10:33 PM 76.9°F24.9°C 72.1°F22.3°C 85% 1.4 mph NNW2.3 kmh NNW 4.0 mph6.4 kmh 29.95 in1014.2 mb 0.00 in0.0 mm 0.00 in0.0 mm 0.03 in0.8 mm
10:38 PM 76.8°F24.9°C 72.0°F22.2°C 85% 1.4 mph NW2.3 kmh NW 4.0 mph6.4 kmh 29.95 in1014.2 mb 0.00 in0.0 mm 0.00 in0.0 mm 0.03 in0.8 mm
10:43 PM 76.8°F24.9°C 72.0°F22.2°C 85% 1.0 mph N1.6 kmh N 3.0 mph4.8 kmh 29.95 in1014.2 mb 0.00 in0.0 mm 0.00 in0.0 mm 0.03 in0.8 mm
10:48 PM 76.7°F24.8°C 71.9°F22.2°C 85% 1.0 mph N1.6 kmh N 3.0 mph4.8 kmh 29.95 in1014.2 mb 0.00 in0.0 mm 0.00 in0.0 mm 0.03 in0.8 mm
10:53 PM 76.6°F24.8°C 71.7°F22.1°C 85% 1.0 mph NNW1.6 kmh NNW 3.0 mph4.8 kmh 29.95 in1014.2 mb 0.00 in0.0 mm 0.00 in0.0 mm 0.03 in0.8 mm
10:58 PM 76.5°F24.7°C 71.7°F22.1°C 85% Calm Calm 3.0 mph4.8 kmh 29.95 in1014.2 mb 0.00 in0.0 mm 0.00 in0.0 mm 0.03 in0.8 mm
11:03 PM 76.4°F24.7°C 71.6°F22.0°C 85% 1.0 mph NW1.6 kmh NW 2.0 mph3.2 kmh 29.95 in1014.2 mb 0.00 in0.0 mm 0.00 in0.0 mm 0.03 in0.8 mm
11:08 PM 76.5°F24.7°C 71.7°F22.1°C 85% 1.5 mph NNW2.4 kmh NNW 3.0 mph4.8 kmh 29.95 in1014.2 mb 0.00 in0.0 mm 0.00 in0.0 mm 0.03 in0.8 mm
11:13 PM 76.5°F24.7°C 71.7°F22.1°C 85% 1.6 mph NW2.6 kmh NW 3.0 mph4.8 kmh 29.95 in1014.2 mb 0.00 in0.0 mm 0.00 in0.0 mm 0.03 in0.8 mm
11:18 PM 76.5°F24.7°C 71.7°F22.1°C 85% 1.9 mph N3.1 kmh N 4.0 mph6.4 kmh 29.95 in1014.2 mb 0.00 in0.0 mm 0.00 in0.0 mm 0.03 in0.8 mm
11:23 PM 76.5°F24.7°C 71.7°F22.1°C 85% 2.0 mph NE3.2 kmh NE 5.0 mph8.0 kmh 29.95 in1014.2 mb 0.00 in0.0 mm 0.00 in0.0 mm 0.03 in0.8 mm
11:28 PM 76.3°F24.6°C 71.5°F21.9°C 85% 3.2 mph NE5.1 kmh NE 6.0 mph9.7 kmh 29.96 in1014.6 mb 0.00 in0.0 mm 0.00 in0.0 mm 0.03 in0.8 mm
11:33 PM 76.3°F24.6°C 71.5°F21.9°C 85% 2.6 mph NE4.2 kmh NE 6.0 mph9.7 kmh 29.95 in1014.2 mb 0.00 in0.0 mm 0.00 in0.0 mm 0.03 in0.8 mm
11:38 PM 76.2°F24.6°C 71.4°F21.9°C 85% 3.5 mph ENE5.6 kmh ENE 6.0 mph9.7 kmh 29.96 in1014.6 mb 0.00 in0.0 mm 0.00 in0.0 mm 0.03 in0.8 mm
11:43 PM 76.1°F24.5°C 71.3°F21.8°C 85% 3.3 mph NE5.3 kmh NE 7.0 mph11.3 kmh 29.96 in1014.6 mb 0.00 in0.0 mm 0.00 in0.0 mm 0.03 in0.8 mm
11:48 PM 76.0°F24.4°C 71.2°F21.8°C 85% 3.4 mph NE5.5 kmh NE 7.0 mph11.3 kmh 29.96 in1014.6 mb 0.00 in0.0 mm 0.00 in0.0 mm 0.03 in0.8 mm
11:53 PM 75.9°F24.4°C 71.1°F21.7°C 85% 1.8 mph ENE2.9 kmh ENE 7.0 mph11.3 kmh 29.96 in1014.6 mb 0.00 in0.0 mm 0.00 in0.0 mm 0.03 in0.8 mm
11:58 PM 75.7°F24.3°C 70.9°F21.6°C 85% 3.5 mph NE5.6 kmh NE 7.0 mph11.3 kmh 29.96 in1014.6 mb 0.00 in0.0 mm 0.00 in0.0 mm 0.03 in0.8 mm